sensor_id;sensor_type;location;lat;lon;timestamp;temperature;humidity
78438;SHT31;67736;51.978;5.656;2023-08-31T00:01:55;15.2;68.4
78438;SHT31;67736;51.978;5.656;2023-08-31T00:04:25;15.2;68.7
78438;SHT31;67736;51.978;5.656;2023-08-31T00:06:54;15.2;69.0
78438;SHT31;67736;51.978;5.656;2023-08-31T00:09:24;15.2;69.2
78438;SHT31;67736;51.978;5.656;2023-08-31T00:11:54;15.2;69.4
78438;SHT31;67736;51.978;5.656;2023-08-31T00:14:24;15.1;69.7
78438;SHT31;67736;51.978;5.656;2023-08-31T00:16:54;15.1;70.2
78438;SHT31;67736;51.978;5.656;2023-08-31T00:19:25;15.1;70.1
78438;SHT31;67736;51.978;5.656;2023-08-31T00:21:54;15.1;70.5
78438;SHT31;67736;51.978;5.656;2023-08-31T00:24:24;15.1;70.9
78438;SHT31;67736;51.978;5.656;2023-08-31T00:26:57;15.1;70.9
78438;SHT31;67736;51.978;5.656;2023-08-31T00:29:27;15.0;71.2
78438;SHT31;67736;51.978;5.656;2023-08-31T00:31:57;15.0;71.2
78438;SHT31;67736;51.978;5.656;2023-08-31T00:34:26;15.0;71.4
78438;SHT31;67736;51.978;5.656;2023-08-31T00:36:56;15.0;71.5
78438;SHT31;67736;51.978;5.656;2023-08-31T00:39:26;15.0;71.7
78438;SHT31;67736;51.978;5.656;2023-08-31T00:41:56;15.0;71.9
78438;SHT31;67736;51.978;5.656;2023-08-31T00:44:25;14.9;72.0
78438;SHT31;67736;51.978;5.656;2023-08-31T00:46:56;14.9;72.3
78438;SHT31;67736;51.978;5.656;2023-08-31T00:49:25;14.9;72.3
78438;SHT31;67736;51.978;5.656;2023-08-31T00:51:55;14.9;72.3
78438;SHT31;67736;51.978;5.656;2023-08-31T00:54:27;14.9;72.3
78438;SHT31;67736;51.978;5.656;2023-08-31T00:56:58;14.9;72.4
78438;SHT31;67736;51.978;5.656;2023-08-31T00:59:27;14.9;72.5
78438;SHT31;67736;51.978;5.656;2023-08-31T01:02:06;14.9;72.9
78438;SHT31;67736;51.978;5.656;2023-08-31T01:04:48;14.9;73.1
78438;SHT31;67736;51.978;5.656;2023-08-31T01:07:31;14.9;73.0
78438;SHT31;67736;51.978;5.656;2023-08-31T01:10:14;14.9;73.1
78438;SHT31;67736;51.978;5.656;2023-08-31T01:12:52;14.9;73.1
78438;SHT31;67736;51.978;5.656;2023-08-31T01:15:26;14.9;73.0
78438;SHT31;67736;51.978;5.656;2023-08-31T01:17:58;14.8;73.1
78438;SHT31;67736;51.978;5.656;2023-08-31T01:20:32;14.8;73.1
78438;SHT31;67736;51.978;5.656;2023-08-31T01:23:07;14.8;73.1
78438;SHT31;67736;51.978;5.656;2023-08-31T01:25:39;14.8;73.3
78438;SHT31;67736;51.978;5.656;2023-08-31T01:28:11;14.8;73.4
78438;SHT31;67736;51.978;5.656;2023-08-31T01:30:41;14.8;73.4
78438;SHT31;67736;51.978;5.656;2023-08-31T01:33:11;14.8;73.5
78438;SHT31;67736;51.978;5.656;2023-08-31T01:35:44;14.8;73.6
78438;SHT31;67736;51.978;5.656;2023-08-31T01:38:21;14.8;73.9
78438;SHT31;67736;51.978;5.656;2023-08-31T01:40:58;14.8;74.1
78438;SHT31;67736;51.978;5.656;2023-08-31T01:43:31;14.8;74.2
78438;SHT31;67736;51.978;5.656;2023-08-31T01:46:02;14.9;74.4
78438;SHT31;67736;51.978;5.656;2023-08-31T01:48:39;14.9;74.5
78438;SHT31;67736;51.978;5.656;2023-08-31T01:51:09;14.9;74.5
78438;SHT31;67736;51.978;5.656;2023-08-31T01:53:40;14.9;74.5
78438;SHT31;67736;51.978;5.656;2023-08-31T01:56:09;14.9;74.5
78438;SHT31;67736;51.978;5.656;2023-08-31T01:58:41;14.9;74.4
78438;SHT31;67736;51.978;5.656;2023-08-31T02:01:12;15.0;74.3
78438;SHT31;67736;51.978;5.656;2023-08-31T02:03:42;15.0;74.3
78438;SHT31;67736;51.978;5.656;2023-08-31T02:06:12;15.0;74.3
78438;SHT31;67736;51.978;5.656;2023-08-31T02:08:41;15.0;74.3
78438;SHT31;67736;51.978;5.656;2023-08-31T02:11:11;15.0;74.2
78438;SHT31;67736;51.978;5.656;2023-08-31T02:13:42;15.0;74.2
78438;SHT31;67736;51.978;5.656;2023-08-31T02:16:11;15.0;74.1
78438;SHT31;67736;51.978;5.656;2023-08-31T02:18:41;15.0;74.0
78438;SHT31;67736;51.978;5.656;2023-08-31T02:21:11;15.0;73.8
78438;SHT31;67736;51.978;5.656;2023-08-31T02:23:40;15.0;73.8
78438;SHT31;67736;51.978;5.656;2023-08-31T02:26:10;15.1;73.7
78438;SHT31;67736;51.978;5.656;2023-08-31T02:28:42;15.1;73.6
78438;SHT31;67736;51.978;5.656;2023-08-31T02:31:13;15.1;73.6
78438;SHT31;67736;51.978;5.656;2023-08-31T02:33:46;15.1;73.4
78438;SHT31;67736;51.978;5.656;2023-08-31T02:36:19;15.1;73.5
78438;SHT31;67736;51.978;5.656;2023-08-31T02:38:49;15.1;73.5
78438;SHT31;67736;51.978;5.656;2023-08-31T02:41:20;15.1;73.4
78438;SHT31;67736;51.978;5.656;2023-08-31T02:43:52;15.1;73.4
78438;SHT31;67736;51.978;5.656;2023-08-31T02:46:21;15.1;73.2
78438;SHT31;67736;51.978;5.656;2023-08-31T02:48:51;15.1;73.3
78438;SHT31;67736;51.978;5.656;2023-08-31T02:51:23;15.1;73.2
78438;SHT31;67736;51.978;5.656;2023-08-31T02:53:53;15.1;73.3
78438;SHT31;67736;51.978;5.656;2023-08-31T02:56:24;15.1;73.3
78438;SHT31;67736;51.978;5.656;2023-08-31T02:58:54;15.1;73.5
78438;SHT31;67736;51.978;5.656;2023-08-31T03:01:23;15.1;73.4
78438;SHT31;67736;51.978;5.656;2023-08-31T03:03:53;15.1;73.4
78438;SHT31;67736;51.978;5.656;2023-08-31T03:06:25;15.1;73.5
78438;SHT31;67736;51.978;5.656;2023-08-31T03:08:54;15.1;73.4
78438;SHT31;67736;51.978;5.656;2023-08-31T03:11:24;15.1;73.4
78438;SHT31;67736;51.978;5.656;2023-08-31T03:13:53;15.2;73.1
78438;SHT31;67736;51.978;5.656;2023-08-31T03:16:23;15.2;72.7
78438;SHT31;67736;51.978;5.656;2023-08-31T03:18:53;15.2;72.5
78438;SHT31;67736;51.978;5.656;2023-08-31T03:21:23;15.2;72.5
78438;SHT31;67736;51.978;5.656;2023-08-31T03:23:53;15.2;72.3
78438;SHT31;67736;51.978;5.656;2023-08-31T03:26:22;15.2;72.1
78438;SHT31;67736;51.978;5.656;2023-08-31T03:28:52;15.2;72.0
78438;SHT31;67736;51.978;5.656;2023-08-31T03:31:21;15.2;71.8
78438;SHT31;67736;51.978;5.656;2023-08-31T03:33:51;15.2;71.8
78438;SHT31;67736;51.978;5.656;2023-08-31T03:36:21;15.2;71.9
78438;SHT31;67736;51.978;5.656;2023-08-31T03:38:53;15.2;71.8
78438;SHT31;67736;51.978;5.656;2023-08-31T03:41:24;15.2;72.0
78438;SHT31;67736;51.978;5.656;2023-08-31T03:43:53;15.2;72.0
78438;SHT31;67736;51.978;5.656;2023-08-31T03:46:23;15.2;72.1
78438;SHT31;67736;51.978;5.656;2023-08-31T03:48:54;15.2;72.1
78438;SHT31;67736;51.978;5.656;2023-08-31T03:51:23;15.2;72.2
78438;SHT31;67736;51.978;5.656;2023-08-31T03:53:53;15.2;72.2
78438;SHT31;67736;51.978;5.656;2023-08-31T03:56:24;15.2;72.2
78438;SHT31;67736;51.978;5.656;2023-08-31T03:58:54;15.2;72.1
78438;SHT31;67736;51.978;5.656;2023-08-31T04:01:24;15.3;72.2
78438;SHT31;67736;51.978;5.656;2023-08-31T04:03:53;15.3;71.9
78438;SHT31;67736;51.978;5.656;2023-08-31T04:06:23;15.3;71.9
78438;SHT31;67736;51.978;5.656;2023-08-31T04:08:53;15.3;71.9
78438;SHT31;67736;51.978;5.656;2023-08-31T04:11:24;15.3;71.9
78438;SHT31;67736;51.978;5.656;2023-08-31T04:13:54;15.3;72.0
78438;SHT31;67736;51.978;5.656;2023-08-31T04:16:23;15.3;72.1
78438;SHT31;67736;51.978;5.656;2023-08-31T04:18:54;15.3;72.3
78438;SHT31;67736;51.978;5.656;2023-08-31T04:21:25;15.4;72.6
78438;SHT31;67736;51.978;5.656;2023-08-31T04:23:55;15.4;72.9
78438;SHT31;67736;51.978;5.656;2023-08-31T04:26:29;15.4;73.3
78438;SHT31;67736;51.978;5.656;2023-08-31T04:29:00;15.4;73.6
78438;SHT31;67736;51.978;5.656;2023-08-31T04:31:30;15.4;74.1
78438;SHT31;67736;51.978;5.656;2023-08-31T04:34:00;15.4;74.2
78438;SHT31;67736;51.978;5.656;2023-08-31T04:36:30;15.4;74.5
78438;SHT31;67736;51.978;5.656;2023-08-31T04:38:59;15.4;74.7
78438;SHT31;67736;51.978;5.656;2023-08-31T04:41:30;15.4;75.0
78438;SHT31;67736;51.978;5.656;2023-08-31T04:44:00;15.4;75.1
78438;SHT31;67736;51.978;5.656;2023-08-31T04:46:29;15.4;75.1
78438;SHT31;67736;51.978;5.656;2023-08-31T04:49:01;15.5;75.2
78438;SHT31;67736;51.978;5.656;2023-08-31T04:51:33;15.5;75.2
78438;SHT31;67736;51.978;5.656;2023-08-31T04:54:05;15.5;75.4
78438;SHT31;67736;51.978;5.656;2023-08-31T04:56:34;15.5;75.3
78438;SHT31;67736;51.978;5.656;2023-08-31T04:59:06;15.5;75.2
78438;SHT31;67736;51.978;5.656;2023-08-31T05:01:36;15.5;75.3
78438;SHT31;67736;51.978;5.656;2023-08-31T05:04:06;15.5;74.9
78438;SHT31;67736;51.978;5.656;2023-08-31T05:06:35;15.5;75.0
78438;SHT31;67736;51.978;5.656;2023-08-31T05:09:05;15.5;74.9
78438;SHT31;67736;51.978;5.656;2023-08-31T05:11:35;15.5;75.0
78438;SHT31;67736;51.978;5.656;2023-08-31T05:14:07;15.5;74.9
78438;SHT31;67736;51.978;5.656;2023-08-31T05:16:36;15.5;74.9
78438;SHT31;67736;51.978;5.656;2023-08-31T05:19:06;15.5;75.1
78438;SHT31;67736;51.978;5.656;2023-08-31T05:21:35;15.5;75.0
78438;SHT31;67736;51.978;5.656;2023-08-31T05:24:06;15.5;75.2
78438;SHT31;67736;51.978;5.656;2023-08-31T05:26:38;15.5;75.3
78438;SHT31;67736;51.978;5.656;2023-08-31T05:29:08;15.5;75.4
78438;SHT31;67736;51.978;5.656;2023-08-31T05:31:38;15.5;75.4
78438;SHT31;67736;51.978;5.656;2023-08-31T05:34:09;15.5;75.2
78438;SHT31;67736;51.978;5.656;2023-08-31T05:36:39;15.5;75.2
78438;SHT31;67736;51.978;5.656;2023-08-31T05:39:09;15.5;75.1
78438;SHT31;67736;51.978;5.656;2023-08-31T05:41:41;15.5;75.3
78438;SHT31;67736;51.978;5.656;2023-08-31T05:44:11;15.5;75.2
78438;SHT31;67736;51.978;5.656;2023-08-31T05:46:41;15.5;75.1
78438;SHT31;67736;51.978;5.656;2023-08-31T05:49:10;15.5;75.2
78438;SHT31;67736;51.978;5.656;2023-08-31T05:51:40;15.5;75.1
78438;SHT31;67736;51.978;5.656;2023-08-31T05:54:09;15.5;75.1
78438;SHT31;67736;51.978;5.656;2023-08-31T05:56:40;15.6;74.9
78438;SHT31;67736;51.978;5.656;2023-08-31T05:59:10;15.6;74.8
78438;SHT31;67736;51.978;5.656;2023-08-31T06:01:40;15.6;74.7
78438;SHT31;67736;51.978;5.656;2023-08-31T06:04:11;15.6;74.9
78438;SHT31;67736;51.978;5.656;2023-08-31T06:06:42;15.6;75.0
78438;SHT31;67736;51.978;5.656;2023-08-31T06:09:12;15.6;74.9
78438;SHT31;67736;51.978;5.656;2023-08-31T06:11:41;15.6;75.0
78438;SHT31;67736;51.978;5.656;2023-08-31T06:14:11;15.6;75.0
78438;SHT31;67736;51.978;5.656;2023-08-31T06:16:41;15.6;75.3
78438;SHT31;67736;51.978;5.656;2023-08-31T06:19:11;15.6;75.4
78438;SHT31;67736;51.978;5.656;2023-08-31T06:21:42;15.6;75.3
78438;SHT31;67736;51.978;5.656;2023-08-31T06:24:14;15.7;75.6
78438;SHT31;67736;51.978;5.656;2023-08-31T06:26:43;15.7;75.4
78438;SHT31;67736;51.978;5.656;2023-08-31T06:29:13;15.7;75.4
78438;SHT31;67736;51.978;5.656;2023-08-31T06:31:42;15.7;75.2
78438;SHT31;67736;51.978;5.656;2023-08-31T06:34:12;15.7;74.9
78438;SHT31;67736;51.978;5.656;2023-08-31T06:36:41;15.8;75.2
78438;SHT31;67736;51.978;5.656;2023-08-31T06:39:12;15.8;75.3
78438;SHT31;67736;51.978;5.656;2023-08-31T06:41:43;15.8;75.1
78438;SHT31;67736;51.978;5.656;2023-08-31T06:44:12;15.8;75.1
78438;SHT31;67736;51.978;5.656;2023-08-31T06:46:42;15.9;74.9
78438;SHT31;67736;51.978;5.656;2023-08-31T06:49:13;15.9;74.7
78438;SHT31;67736;51.978;5.656;2023-08-31T06:51:43;15.9;74.6
78438;SHT31;67736;51.978;5.656;2023-08-31T06:54:12;15.9;74.9
78438;SHT31;67736;51.978;5.656;2023-08-31T06:56:42;15.9;75.0
78438;SHT31;67736;51.978;5.656;2023-08-31T06:59:11;16.0;75.0
78438;SHT31;67736;51.978;5.656;2023-08-31T07:01:41;16.0;75.5
78438;SHT31;67736;51.978;5.656;2023-08-31T07:04:10;16.0;75.1
78438;SHT31;67736;51.978;5.656;2023-08-31T07:06:40;16.0;75.1
78438;SHT31;67736;51.978;5.656;2023-08-31T07:09:09;16.1;75.1
78438;SHT31;67736;51.978;5.656;2023-08-31T07:11:39;16.1;75.0
78438;SHT31;67736;51.978;5.656;2023-08-31T07:14:10;16.1;74.9
78438;SHT31;67736;51.978;5.656;2023-08-31T07:16:39;16.1;75.2
78438;SHT31;67736;51.978;5.656;2023-08-31T07:19:09;16.2;75.5
78438;SHT31;67736;51.978;5.656;2023-08-31T07:21:38;16.2;75.3
78438;SHT31;67736;51.978;5.656;2023-08-31T07:24:08;16.2;75.1
78438;SHT31;67736;51.978;5.656;2023-08-31T07:26:39;16.3;74.8
78438;SHT31;67736;51.978;5.656;2023-08-31T07:29:08;16.3;74.9
78438;SHT31;67736;51.978;5.656;2023-08-31T07:31:38;16.3;74.7
78438;SHT31;67736;51.978;5.656;2023-08-31T07:34:08;16.4;74.5
78438;SHT31;67736;51.978;5.656;2023-08-31T07:36:38;16.4;74.3
78438;SHT31;67736;51.978;5.656;2023-08-31T07:39:07;16.4;74.7
78438;SHT31;67736;51.978;5.656;2023-08-31T07:41:37;16.4;74.6
78438;SHT31;67736;51.978;5.656;2023-08-31T07:44:06;16.4;74.6
78438;SHT31;67736;51.978;5.656;2023-08-31T07:46:36;16.5;74.7
78438;SHT31;67736;51.978;5.656;2023-08-31T07:49:06;16.5;74.7
78438;SHT31;67736;51.978;5.656;2023-08-31T07:51:35;16.5;75.0
78438;SHT31;67736;51.978;5.656;2023-08-31T07:54:05;16.5;74.7
78438;SHT31;67736;51.978;5.656;2023-08-31T07:56:35;16.5;74.7
78438;SHT31;67736;51.978;5.656;2023-08-31T07:59:04;16.6;74.4
78438;SHT31;67736;51.978;5.656;2023-08-31T08:01:34;16.6;74.6
78438;SHT31;67736;51.978;5.656;2023-08-31T08:04:04;16.6;74.9
78438;SHT31;67736;51.978;5.656;2023-08-31T08:06:33;16.6;75.1
78438;SHT31;67736;51.978;5.656;2023-08-31T08:09:03;16.7;75.5
78438;SHT31;67736;51.978;5.656;2023-08-31T08:11:34;16.7;75.7
78438;SHT31;67736;51.978;5.656;2023-08-31T08:14:04;16.8;76.0
78438;SHT31;67736;51.978;5.656;2023-08-31T08:16:35;16.8;76.6
78438;SHT31;67736;51.978;5.656;2023-08-31T08:19:05;16.9;76.9
78438;SHT31;67736;51.978;5.656;2023-08-31T08:21:35;16.9;76.4
78438;SHT31;67736;51.978;5.656;2023-08-31T08:24:05;17.0;76.0
78438;SHT31;67736;51.978;5.656;2023-08-31T08:26:34;17.0;77.2
78438;SHT31;67736;51.978;5.656;2023-08-31T08:29:04;17.1;76.4
78438;SHT31;67736;51.978;5.656;2023-08-31T08:31:33;17.2;76.1
78438;SHT31;67736;51.978;5.656;2023-08-31T08:34:03;17.3;74.8
78438;SHT31;67736;51.978;5.656;2023-08-31T08:36:33;17.4;74.9
78438;SHT31;67736;51.978;5.656;2023-08-31T08:39:03;17.5;74.6
78438;SHT31;67736;51.978;5.656;2023-08-31T08:41:33;17.6;74.8
78438;SHT31;67736;51.978;5.656;2023-08-31T08:44:07;17.7;74.2
78438;SHT31;67736;51.978;5.656;2023-08-31T08:46:37;17.8;72.9
78438;SHT31;67736;51.978;5.656;2023-08-31T08:49:10;17.9;74.3
78438;SHT31;67736;51.978;5.656;2023-08-31T08:51:40;18.0;72.9
78438;SHT31;67736;51.978;5.656;2023-08-31T08:54:12;18.1;71.0
78438;SHT31;67736;51.978;5.656;2023-08-31T08:56:42;18.3;73.7
78438;SHT31;67736;51.978;5.656;2023-08-31T08:59:12;18.4;73.0
78438;SHT31;67736;51.978;5.656;2023-08-31T09:01:42;18.6;72.5
78438;SHT31;67736;51.978;5.656;2023-08-31T09:04:12;18.8;71.2
78438;SHT31;67736;51.978;5.656;2023-08-31T09:06:42;19.1;70.9
78438;SHT31;67736;51.978;5.656;2023-08-31T09:09:12;19.3;67.9
78438;SHT31;67736;51.978;5.656;2023-08-31T09:11:41;19.5;65.5
78438;SHT31;67736;51.978;5.656;2023-08-31T09:14:18;19.8;62.5
78438;SHT31;67736;51.978;5.656;2023-08-31T09:16:50;20.0;62.6
78438;SHT31;67736;51.978;5.656;2023-08-31T09:19:22;20.2;62.4
78438;SHT31;67736;51.978;5.656;2023-08-31T09:21:55;20.4;61.5
78438;SHT31;67736;51.978;5.656;2023-08-31T09:24:25;20.7;60.6
78438;SHT31;67736;51.978;5.656;2023-08-31T09:26:57;20.9;58.8
78438;SHT31;67736;51.978;5.656;2023-08-31T09:29:29;21.1;58.3
78438;SHT31;67736;51.978;5.656;2023-08-31T09:31:59;21.3;57.5
78438;SHT31;67736;51.978;5.656;2023-08-31T09:34:34;21.5;57.6
78438;SHT31;67736;51.978;5.656;2023-08-31T09:37:06;21.7;57.1
78438;SHT31;67736;51.978;5.656;2023-08-31T09:39:39;22.0;55.3
78438;SHT31;67736;51.978;5.656;2023-08-31T09:42:09;22.2;53.8
78438;SHT31;67736;51.978;5.656;2023-08-31T09:44:43;22.3;54.4
78438;SHT31;67736;51.978;5.656;2023-08-31T09:47:15;22.4;54.1
78438;SHT31;67736;51.978;5.656;2023-08-31T09:49:46;22.5;54.7
78438;SHT31;67736;51.978;5.656;2023-08-31T09:52:17;22.6;53.2
78438;SHT31;67736;51.978;5.656;2023-08-31T09:54:49;22.6;53.0
78438;SHT31;67736;51.978;5.656;2023-08-31T09:57:21;22.7;51.6
78438;SHT31;67736;51.978;5.656;2023-08-31T09:59:51;22.7;51.8
78438;SHT31;67736;51.978;5.656;2023-08-31T10:02:22;22.7;51.9
78438;SHT31;67736;51.978;5.656;2023-08-31T10:04:54;22.6;51.5
78438;SHT31;67736;51.978;5.656;2023-08-31T10:07:24;22.6;52.4
78438;SHT31;67736;51.978;5.656;2023-08-31T10:09:56;22.5;51.5
78438;SHT31;67736;51.978;5.656;2023-08-31T10:12:27;22.5;51.6
78438;SHT31;67736;51.978;5.656;2023-08-31T10:14:58;22.4;51.4
78438;SHT31;67736;51.978;5.656;2023-08-31T10:17:27;22.4;51.3
78438;SHT31;67736;51.978;5.656;2023-08-31T10:19:58;22.3;50.5
78438;SHT31;67736;51.978;5.656;2023-08-31T10:22:27;22.2;50.0
78438;SHT31;67736;51.978;5.656;2023-08-31T10:25:02;22.1;50.1
78438;SHT31;67736;51.978;5.656;2023-08-31T10:27:38;22.0;49.7
78438;SHT31;67736;51.978;5.656;2023-08-31T10:30:27;21.9;49.9
78438;SHT31;67736;51.978;5.656;2023-08-31T10:33:22;21.7;50.8
78438;SHT31;67736;51.978;5.656;2023-08-31T10:35:54;21.6;50.8
78438;SHT31;67736;51.978;5.656;2023-08-31T10:38:29;21.5;51.2
78438;SHT31;67736;51.978;5.656;2023-08-31T10:41:19;21.5;50.6
78438;SHT31;67736;51.978;5.656;2023-08-31T10:43:54;21.4;51.5
78438;SHT31;67736;51.978;5.656;2023-08-31T10:46:29;21.4;51.1
78438;SHT31;67736;51.978;5.656;2023-08-31T10:49:01;21.3;51.3
78438;SHT31;67736;51.978;5.656;2023-08-31T10:51:37;21.3;51.9
78438;SHT31;67736;51.978;5.656;2023-08-31T10:54:09;21.3;51.0
78438;SHT31;67736;51.978;5.656;2023-08-31T10:57:03;21.3;51.1
78438;SHT31;67736;51.978;5.656;2023-08-31T10:59:45;21.3;51.4
78438;SHT31;67736;51.978;5.656;2023-08-31T11:02:34;21.3;52.9
78438;SHT31;67736;51.978;5.656;2023-08-31T11:05:09;21.4;52.4
78438;SHT31;67736;51.978;5.656;2023-08-31T11:07:39;21.4;49.3
78438;SHT31;67736;51.978;5.656;2023-08-31T11:10:14;21.4;48.9
78438;SHT31;67736;51.978;5.656;2023-08-31T11:12:47;21.4;48.0
78438;SHT31;67736;51.978;5.656;2023-08-31T11:15:19;21.4;45.7
78438;SHT31;67736;51.978;5.656;2023-08-31T11:17:49;21.4;47.6
78438;SHT31;67736;51.978;5.656;2023-08-31T11:20:20;21.4;46.1
78438;SHT31;67736;51.978;5.656;2023-08-31T11:22:51;21.4;45.8
78438;SHT31;67736;51.978;5.656;2023-08-31T11:25:22;21.5;46.3
78438;SHT31;67736;51.978;5.656;2023-08-31T11:27:56;21.5;46.5
78438;SHT31;67736;51.978;5.656;2023-08-31T11:30:28;21.5;46.9
78438;SHT31;67736;51.978;5.656;2023-08-31T11:33:02;21.5;45.6
78438;SHT31;67736;51.978;5.656;2023-08-31T11:35:35;21.5;44.4
78438;SHT31;67736;51.978;5.656;2023-08-31T11:38:05;21.5;43.7
78438;SHT31;67736;51.978;5.656;2023-08-31T11:40:35;21.5;44.3
78438;SHT31;67736;51.978;5.656;2023-08-31T11:43:06;21.5;44.5
78438;SHT31;67736;51.978;5.656;2023-08-31T11:45:38;21.5;43.8
78438;SHT31;67736;51.978;5.656;2023-08-31T11:48:11;21.6;44.1
78438;SHT31;67736;51.978;5.656;2023-08-31T11:50:41;21.6;42.8
78438;SHT31;67736;51.978;5.656;2023-08-31T11:53:11;21.6;43.3
78438;SHT31;67736;51.978;5.656;2023-08-31T11:55:51;21.6;44.5
78438;SHT31;67736;51.978;5.656;2023-08-31T11:58:21;21.6;43.2
78438;SHT31;67736;51.978;5.656;2023-08-31T12:00:59;21.7;44.5
78438;SHT31;67736;51.978;5.656;2023-08-31T12:03:43;21.7;43.0
78438;SHT31;67736;51.978;5.656;2023-08-31T12:06:16;21.7;42.8
78438;SHT31;67736;51.978;5.656;2023-08-31T12:08:47;21.7;42.7
78438;SHT31;67736;51.978;5.656;2023-08-31T12:11:18;21.7;43.3
78438;SHT31;67736;51.978;5.656;2023-08-31T12:13:50;21.7;43.3
78438;SHT31;67736;51.978;5.656;2023-08-31T12:16:19;21.7;43.8
78438;SHT31;67736;51.978;5.656;2023-08-31T12:18:49;21.7;44.8
78438;SHT31;67736;51.978;5.656;2023-08-31T12:21:21;21.7;44.1
78438;SHT31;67736;51.978;5.656;2023-08-31T12:23:50;21.7;44.5
78438;SHT31;67736;51.978;5.656;2023-08-31T12:26:20;21.7;45.5
78438;SHT31;67736;51.978;5.656;2023-08-31T12:28:51;21.7;44.7
78438;SHT31;67736;51.978;5.656;2023-08-31T12:31:21;21.7;45.3
78438;SHT31;67736;51.978;5.656;2023-08-31T12:33:53;21.7;44.4
78438;SHT31;67736;51.978;5.656;2023-08-31T12:36:23;21.8;44.8
78438;SHT31;67736;51.978;5.656;2023-08-31T12:38:52;21.8;45.4
78438;SHT31;67736;51.978;5.656;2023-08-31T12:41:22;21.8;45.4
78438;SHT31;67736;51.978;5.656;2023-08-31T12:43:51;21.8;45.5
78438;SHT31;67736;51.978;5.656;2023-08-31T12:46:21;21.8;44.5
78438;SHT31;67736;51.978;5.656;2023-08-31T12:48:52;21.8;43.1
78438;SHT31;67736;51.978;5.656;2023-08-31T12:51:21;21.8;45.0
78438;SHT31;67736;51.978;5.656;2023-08-31T12:53:53;21.8;44.5
78438;SHT31;67736;51.978;5.656;2023-08-31T12:56:23;21.8;43.9
78438;SHT31;67736;51.978;5.656;2023-08-31T12:58:53;21.8;44.9
78438;SHT31;67736;51.978;5.656;2023-08-31T13:01:25;21.8;43.1
78438;SHT31;67736;51.978;5.656;2023-08-31T13:03:54;21.9;44.6
78438;SHT31;67736;51.978;5.656;2023-08-31T13:06:24;21.9;44.3
78438;SHT31;67736;51.978;5.656;2023-08-31T13:08:54;21.9;44.1
78438;SHT31;67736;51.978;5.656;2023-08-31T13:11:23;21.9;43.9
78438;SHT31;67736;51.978;5.656;2023-08-31T13:13:53;21.9;42.7
78438;SHT31;67736;51.978;5.656;2023-08-31T13:16:23;21.9;43.1
78438;SHT31;67736;51.978;5.656;2023-08-31T13:18:53;21.9;43.5
78438;SHT31;67736;51.978;5.656;2023-08-31T13:21:22;21.9;43.3
78438;SHT31;67736;51.978;5.656;2023-08-31T13:23:52;21.9;44.0
78438;SHT31;67736;51.978;5.656;2023-08-31T13:26:21;21.9;43.1
78438;SHT31;67736;51.978;5.656;2023-08-31T13:28:51;21.9;42.7
78438;SHT31;67736;51.978;5.656;2023-08-31T13:31:21;21.9;42.8
78438;SHT31;67736;51.978;5.656;2023-08-31T13:33:51;21.9;42.7
78438;SHT31;67736;51.978;5.656;2023-08-31T13:36:20;21.8;44.0
78438;SHT31;67736;51.978;5.656;2023-08-31T13:38:50;21.8;44.7
78438;SHT31;67736;51.978;5.656;2023-08-31T13:41:19;21.9;43.6
78438;SHT31;67736;51.978;5.656;2023-08-31T13:43:49;21.9;43.8
78438;SHT31;67736;51.978;5.656;2023-08-31T13:46:19;21.9;42.5
78438;SHT31;67736;51.978;5.656;2023-08-31T13:48:48;21.9;42.7
78438;SHT31;67736;51.978;5.656;2023-08-31T13:51:20;21.9;43.1
78438;SHT31;67736;51.978;5.656;2023-08-31T13:53:49;21.9;43.3
78438;SHT31;67736;51.978;5.656;2023-08-31T13:56:19;21.9;43.7
78438;SHT31;67736;51.978;5.656;2023-08-31T13:58:49;21.9;43.8
78438;SHT31;67736;51.978;5.656;2023-08-31T14:01:19;21.9;43.9
78438;SHT31;67736;51.978;5.656;2023-08-31T14:03:49;21.9;44.3
78438;SHT31;67736;51.978;5.656;2023-08-31T14:06:19;21.9;43.5
78438;SHT31;67736;51.978;5.656;2023-08-31T14:08:48;21.9;44.1
78438;SHT31;67736;51.978;5.656;2023-08-31T14:11:18;21.9;44.8
78438;SHT31;67736;51.978;5.656;2023-08-31T14:13:47;22.0;45.1
78438;SHT31;67736;51.978;5.656;2023-08-31T14:16:17;22.0;42.8
78438;SHT31;67736;51.978;5.656;2023-08-31T14:18:46;22.0;43.4
78438;SHT31;67736;51.978;5.656;2023-08-31T14:21:16;22.0;43.0
78438;SHT31;67736;51.978;5.656;2023-08-31T14:23:47;22.0;43.4
78438;SHT31;67736;51.978;5.656;2023-08-31T14:26:16;22.0;43.2
78438;SHT31;67736;51.978;5.656;2023-08-31T14:28:46;22.0;44.0
78438;SHT31;67736;51.978;5.656;2023-08-31T14:31:16;22.0;43.6
78438;SHT31;67736;51.978;5.656;2023-08-31T14:33:46;22.0;44.3
78438;SHT31;67736;51.978;5.656;2023-08-31T14:36:16;22.1;44.3
78438;SHT31;67736;51.978;5.656;2023-08-31T14:38:47;22.1;44.1
78438;SHT31;67736;51.978;5.656;2023-08-31T14:41:16;22.1;43.8
78438;SHT31;67736;51.978;5.656;2023-08-31T14:43:46;22.1;44.0
78438;SHT31;67736;51.978;5.656;2023-08-31T14:46:16;22.0;43.3
78438;SHT31;67736;51.978;5.656;2023-08-31T14:48:46;22.0;43.0
78438;SHT31;67736;51.978;5.656;2023-08-31T14:51:16;22.0;44.3
78438;SHT31;67736;51.978;5.656;2023-08-31T14:53:47;22.0;43.3
78438;SHT31;67736;51.978;5.656;2023-08-31T14:56:16;22.1;43.8
78438;SHT31;67736;51.978;5.656;2023-08-31T14:58:49;22.1;43.7
78438;SHT31;67736;51.978;5.656;2023-08-31T15:01:18;22.1;44.2
78438;SHT31;67736;51.978;5.656;2023-08-31T15:03:50;22.1;44.7
78438;SHT31;67736;51.978;5.656;2023-08-31T15:06:20;22.1;44.1
78438;SHT31;67736;51.978;5.656;2023-08-31T15:08:49;22.2;43.8
78438;SHT31;67736;51.978;5.656;2023-08-31T15:11:19;22.2;43.1
78438;SHT31;67736;51.978;5.656;2023-08-31T15:13:49;22.2;43.7
78438;SHT31;67736;51.978;5.656;2023-08-31T15:16:18;22.2;43.5
78438;SHT31;67736;51.978;5.656;2023-08-31T15:18:48;22.2;43.1
78438;SHT31;67736;51.978;5.656;2023-08-31T15:21:19;22.2;43.7
78438;SHT31;67736;51.978;5.656;2023-08-31T15:23:48;22.2;43.6
78438;SHT31;67736;51.978;5.656;2023-08-31T15:26:18;22.2;43.8
78438;SHT31;67736;51.978;5.656;2023-08-31T15:28:48;22.2;43.3
78438;SHT31;67736;51.978;5.656;2023-08-31T15:31:18;22.2;43.2
78438;SHT31;67736;51.978;5.656;2023-08-31T15:33:47;22.2;43.0
78438;SHT31;67736;51.978;5.656;2023-08-31T15:36:17;22.2;44.2
78438;SHT31;67736;51.978;5.656;2023-08-31T15:38:48;22.2;43.4
78438;SHT31;67736;51.978;5.656;2023-08-31T15:41:17;22.2;44.2
78438;SHT31;67736;51.978;5.656;2023-08-31T15:43:47;22.1;43.6
78438;SHT31;67736;51.978;5.656;2023-08-31T15:46:18;22.1;42.8
78438;SHT31;67736;51.978;5.656;2023-08-31T15:48:48;22.1;43.4
78438;SHT31;67736;51.978;5.656;2023-08-31T15:51:18;22.1;44.2
78438;SHT31;67736;51.978;5.656;2023-08-31T15:53:47;22.1;44.7
78438;SHT31;67736;51.978;5.656;2023-08-31T15:56:17;22.1;44.9
78438;SHT31;67736;51.978;5.656;2023-08-31T15:58:46;22.1;44.8
78438;SHT31;67736;51.978;5.656;2023-08-31T16:01:18;22.1;45.1
78438;SHT31;67736;51.978;5.656;2023-08-31T16:03:47;22.0;44.7
78438;SHT31;67736;51.978;5.656;2023-08-31T16:06:17;22.0;44.7
78438;SHT31;67736;51.978;5.656;2023-08-31T16:08:46;22.0;44.9
78438;SHT31;67736;51.978;5.656;2023-08-31T16:11:16;22.0;45.1
78438;SHT31;67736;51.978;5.656;2023-08-31T16:13:49;22.0;44.8
78438;SHT31;67736;51.978;5.656;2023-08-31T16:16:22;21.9;44.7
78438;SHT31;67736;51.978;5.656;2023-08-31T16:18:51;21.9;44.2
78438;SHT31;67736;51.978;5.656;2023-08-31T16:21:21;21.9;45.3
78438;SHT31;67736;51.978;5.656;2023-08-31T16:23:51;21.9;45.9
78438;SHT31;67736;51.978;5.656;2023-08-31T16:26:21;21.9;46.3